Time;durP1;ratioP1;P1;durP2;ratioP2;P2;SDS_P1;SDS_P2;PMS_P1;PMS_P2;Temp;Humidity;BMP_temperature;BMP_pressure;BME280_temperature;BME280_humidity;BME280_pressure;Samples;Min_cycle;Max_cycle;Signal;HPM_P1;HPM_P2
2022/10/12 00:00:10;;;;;;;;;;;;;;;;;;5092441;28;999;-48
2022/10/12 00:02:37;;;;;;;;;;;;;;;;;;5091479;28;1843;-52
2022/10/12 00:05:05;;;;;;;;;;;;;;;;;;5092584;28;1076;-50
2022/10/12 00:07:32;;;;;;;;;;;;;;;;;;5092278;28;905;-52
2022/10/12 00:09:59;;;;;;;;;;;;;;;;;;5092312;28;1911;-51
2022/10/12 00:12:26;;;;;;;;;;;;;;;;;;5092080;28;1006;-50
2022/10/12 00:14:54;;;;;;;;;;;;;;;;;;5091914;28;1114;-53
2022/10/12 00:17:21;;;;;;;;;;;;;;;;;;5090800;28;888;-53
2022/10/12 00:19:49;;;;;;;;;;;;;;;;;;5090169;28;1159;-47
2022/10/12 00:22:17;;;;;;;;;;;;;;;;;;5090117;28;893;-51
2022/10/12 00:24:44;;;;;;;;;;;;;;;;;;5089932;28;1178;-53
2022/10/12 00:27:11;;;;;;;;;;;;;;;;;;5090016;28;1356;-45
2022/10/12 00:29:38;;;;;;;;;;;;;;;;;;5090065;28;1911;-49
2022/10/12 00:32:05;;;;;;;;;;;;;;;;;;5090772;28;1088;-47
2022/10/12 00:34:32;;;;;;;;;;;;;;;;;;5091982;28;1302;-51
2022/10/12 00:37:00;;;;;;;;;;;;;;;;;;5091743;28;1062;-49
2022/10/12 00:39:27;;;;;;;;;;;;;;;;;;5091785;28;1445;-49
2022/10/12 00:41:54;;;;;;;;;;;;;;;;;;5091608;28;909;-50
2022/10/12 00:44:32;;;;;;;;;;;;;;;;;;5091747;28;994;-53
2022/10/12 00:47:01;;;;;;;;;;;;;;;;;;5091760;28;1352;-54
2022/10/12 00:49:29;;;;;;;;;;;;;;;;;;5091540;28;2241;-55
2022/10/12 00:52:01;;;;;;;;;;;;;;;;;;5091716;28;1037;-51
2022/10/12 00:54:31;;;;;;;;;;;;;;;;;;5091641;28;1244;-51
2022/10/12 00:57:01;;;;;;;;;;;;;;;;;;5090486;28;1165;-50
2022/10/12 00:59:35;;;;;;;;;;;;;;;;;;5091446;28;1383;-51
2022/10/12 01:02:02;;;;;;;;;;;;;;;;;;5091438;28;1456;-47
2022/10/12 01:04:30;;;;;;;;;;;;;;;;;;5091128;28;1100;-47
2022/10/12 01:06:59;;;;;;;;;;;;;;;;;;5091328;28;1194;-49
2022/10/12 01:09:27;;;;;;;;;;;;;;;;;;5091196;28;1909;-45
2022/10/12 01:11:55;;;;;;;;;;;;;;;;;;5091484;28;986;-53
2022/10/12 01:14:23;;;;;;;;;;;;;;;;;;5091106;28;1144;-49
2022/10/12 01:16:53;;;;;;;;;;;;;;;;;;5091159;28;1008;-51
2022/10/12 01:19:47;;;;;;;;;;;;;;;;;;5091124;28;1063;-54
2022/10/12 01:22:16;;;;;;;;;;;;;;;;;;5090988;28;1013;-43
2022/10/12 01:24:49;;;;;;;;;;;;;;;;;;5091008;28;1319;-49
2022/10/12 01:27:23;;;;;;;;;;;;;;;;;;5091080;28;934;-54
2022/10/12 01:30:09;;;;;;;;;;;;;;;;;;5090828;28;1980;-52
2022/10/12 01:32:39;;;;;;;;;;;;;;;;;;5091169;28;1160;-53
2022/10/12 01:35:09;;;;;;;;;;;;;;;;;;5091111;28;1060;-52
2022/10/12 01:37:41;;;;;;;;;;;;;;;;;;5091018;28;1150;-52
2022/10/12 01:40:13;;;;;;;;;;;;;;;;;;5090716;28;1191;-48
2022/10/12 01:42:42;;;;;;;;;;;;;;;;;;5090993;28;978;-55
2022/10/12 01:45:13;;;;;;;;;;;;;;;;;;5090782;28;891;-51
2022/10/12 01:47:42;;;;;;;;;;;;;;;;;;5091081;28;963;-46
2022/10/12 01:50:11;;;;;;;;;;;;;;;;;;5090745;28;1918;-55
2022/10/12 01:52:50;;;;;;;;;;;;;;;;;;5090632;28;1541;-47
2022/10/12 01:55:32;;;;;;;;;;;;;;;;;;5090927;28;1288;-50
2022/10/12 01:58:09;;;;;;;;;;;;;;;;;;5090887;28;1113;-46
2022/10/12 02:00:46;;;;;;;;;;;;;;;;;;5090239;28;965;-50
2022/10/12 02:03:23;;;;;;;;;;;;;;;;;;5090449;28;1149;-45
2022/10/12 02:05:53;;;;;;;;;;;;;;;;;;5090688;28;1154;-44
2022/10/12 02:08:23;;;;;;;;;;;;;;;;;;5090624;28;1106;-48
2022/10/12 02:11:03;;;;;;;;;;;;;;;;;;5090614;28;1981;-51
2022/10/12 02:13:33;;;;;;;;;;;;;;;;;;5090513;28;1170;-50
2022/10/12 02:16:02;;;;;;;;;;;;;;;;;;5090567;28;983;-53
2022/10/12 02:18:29;;;;;;;;;;;;;;;;;;5090691;28;980;-50
2022/10/12 02:20:58;;;;;;;;;;;;;;;;;;5090621;28;1079;-50
2022/10/12 02:23:26;;;;;;;;;;;;;;;;;;5090592;28;1205;-49
2022/10/12 02:25:55;;;;;;;;;;;;;;;;;;5091530;28;919;-54
2022/10/12 02:28:22;;;;;;;;;;;;;;;;;;5094079;28;963;-54
2022/10/12 02:30:57;;;;;;;;;;;;;;;;;;5093856;28;1913;-51
2022/10/12 02:33:24;;;;;;;;;;;;;;;;;;5094180;28;897;-53
2022/10/12 02:35:55;;;;;;;;;;;;;;;;;;5094124;28;1108;-48
2022/10/12 02:38:33;;;;;;;;;;;;;;;;;;5094209;28;1121;-48
2022/10/12 02:41:04;;;;;;;;;;;;;;;;;;5093879;28;1098;-50
2022/10/12 02:43:37;;;;;;;;;;;;;;;;;;5093863;28;896;-53
2022/10/12 02:46:06;;;;;;;;;;;;;;;;;;5093944;28;1086;-47
2022/10/12 02:48:34;;;;;;;;;;;;;;;;;;5092469;28;939;-53
2022/10/12 02:51:02;;;;;;;;;;;;;;;;;;5093329;28;1910;-51
2022/10/12 02:53:29;;;;;;;;;;;;;;;;;;5093190;28;1041;-48
2022/10/12 02:56:07;;;;;;;;;;;;;;;;;;5093542;28;1355;-50
2022/10/12 02:58:34;;;;;;;;;;;;;;;;;;5093668;28;1295;-46
2022/10/12 03:01:01;;;;;;;;;;;;;;;;;;5092659;28;1170;-45
2022/10/12 03:03:29;;;;;;;;;;;;;;;;;;5093228;28;1009;-45
2022/10/12 03:05:56;;;;;;;;;;;;;;;;;;5093285;28;987;-47
2022/10/12 03:08:23;;;;;;;;;;;;;;;;;;5093295;28;1039;-51
2022/10/12 03:10:50;;;;;;;;;;;;;;;;;;5093347;28;1915;-48
2022/10/12 03:13:17;;;;;;;;;;;;;;;;;;5093395;28;1153;-46
2022/10/12 03:15:44;;;;;;;;;;;;;;;;;;5093300;28;1057;-52
2022/10/12 03:18:11;;;;;;;;;;;;;;;;;;5093101;28;993;-49
2022/10/12 03:20:38;;;;;;;;;;;;;;;;;;5092927;28;1050;-43
2022/10/12 03:23:05;;;;;;;;;;;;;;;;;;5092931;28;1359;-51
2022/10/12 03:25:32;;;;;;;;;;;;;;;;;;5074891;28;1944;-54
2022/10/12 03:27:59;;;;;;;;;;;;;;;;;;5072791;28;1171;-48
2022/10/12 03:30:26;;;;;;;;;;;;;;;;;;5072532;28;1910;-48
2022/10/12 03:32:53;;;;;;;;;;;;;;;;;;5072566;28;911;-50
2022/10/12 03:35:20;;;;;;;;;;;;;;;;;;5073042;28;1212;-51
2022/10/12 03:37:48;;;;;;;;;;;;;;;;;;5072726;28;1151;-53
2022/10/12 03:40:15;;;;;;;;;;;;;;;;;;5072310;28;1112;-44
2022/10/12 03:42:42;;;;;;;;;;;;;;;;;;5072395;28;977;-54
2022/10/12 03:45:09;;;;;;;;;;;;;;;;;;5072416;28;1083;-52
2022/10/12 03:47:36;;;;;;;;;;;;;;;;;;5072374;28;1069;-55
2022/10/12 03:50:04;;;;;;;;;;;;;;;;;;5071873;28;1906;-51
2022/10/12 03:52:31;;;;;;;;;;;;;;;;;;5072355;28;1090;-51
2022/10/12 03:54:58;;;;;;;;;;;;;;;;;;5070953;28;1072;-55
2022/10/12 03:57:25;;;;;;;;;;;;;;;;;;5072411;28;1139;-42
2022/10/12 03:59:52;;;;;;;;;;;;;;;;;;5070954;28;1187;-54
2022/10/12 04:02:19;;;;;;;;;;;;;;;;;;5072008;28;1397;-48
2022/10/12 04:04:47;;;;;;;;;;;;;;;;;;5071708;28;1111;-54
2022/10/12 04:07:14;;;;;;;;;;;;;;;;;;5071911;28;1098;-49
2022/10/12 04:09:41;;;;;;;;;;;;;;;;;;5071811;28;1906;-48
2022/10/12 04:12:08;;;;;;;;;;;;;;;;;;5071697;28;1004;-47
2022/10/12 04:14:35;;;;;;;;;;;;;;;;;;5071856;28;1139;-45
2022/10/12 04:17:03;;;;;;;;;;;;;;;;;;5071977;28;1411;-51
2022/10/12 04:19:30;;;;;;;;;;;;;;;;;;5071778;28;1000;-41
2022/10/12 04:21:57;;;;;;;;;;;;;;;;;;5071790;28;1358;-42
2022/10/12 04:24:24;;;;;;;;;;;;;;;;;;5071642;28;1111;-51
2022/10/12 04:26:51;;;;;;;;;;;;;;;;;;5071704;28;923;-52
2022/10/12 04:29:19;;;;;;;;;;;;;;;;;;5070632;28;1359;-53
2022/10/12 04:31:47;;;;;;;;;;;;;;;;;;5071329;28;1974;-52
2022/10/12 04:34:14;;;;;;;;;;;;;;;;;;5071289;28;1059;-53
2022/10/12 04:36:41;;;;;;;;;;;;;;;;;;5071567;28;1156;-51
2022/10/12 04:39:08;;;;;;;;;;;;;;;;;;5071686;28;1355;-51
2022/10/12 04:41:35;;;;;;;;;;;;;;;;;;5070959;28;932;-50
2022/10/12 04:44:02;;;;;;;;;;;;;;;;;;5071220;28;1207;-52
2022/10/12 04:46:29;;;;;;;;;;;;;;;;;;5071128;28;1105;-46
2022/10/12 04:48:56;;;;;;;;;;;;;;;;;;5070986;28;1437;-48
2022/10/12 04:51:24;;;;;;;;;;;;;;;;;;5071423;28;1909;-52
2022/10/12 04:53:51;;;;;;;;;;;;;;;;;;5070918;28;1072;-43
2022/10/12 04:56:18;;;;;;;;;;;;;;;;;;5071127;28;1279;-49
2022/10/12 04:58:45;;;;;;;;;;;;;;;;;;5071313;28;1101;-48
2022/10/12 05:01:13;;;;;;;;;;;;;;;;;;5070976;28;1336;-51
2022/10/12 05:03:40;;;;;;;;;;;;;;;;;;5071166;28;1291;-53
2022/10/12 05:06:08;;;;;;;;;;;;;;;;;;5070862;28;1194;-50
2022/10/12 05:08:35;;;;;;;;;;;;;;;;;;5070794;28;1045;-52
2022/10/12 05:11:02;;;;;;;;;;;;;;;;;;5071068;28;1984;-50
2022/10/12 05:13:30;;;;;;;;;;;;;;;;;;5070875;28;1108;-53
2022/10/12 05:15:57;;;;;;;;;;;;;;;;;;5071086;28;934;-45
2022/10/12 05:18:24;;;;;;;;;;;;;;;;;;5071245;28;1142;-45
2022/10/12 05:20:51;;;;;;;;;;;;;;;;;;5070928;28;1075;-52
2022/10/12 05:23:22;;;;;;;;;;;;;;;;;;5070667;28;1112;-50
2022/10/12 05:25:49;;;;;;;;;;;;;;;;;;5071029;28;948;-48
2022/10/12 05:28:16;;;;;;;;;;;;;;;;;;5070656;28;1206;-50
2022/10/12 05:30:47;;;;;;;;;;;;;;;;;;5071377;28;9655;-55
2022/10/12 05:33:15;;;;;;;;;;;;;;;;;;5091991;28;1091;-53
2022/10/12 05:35:41;;;;;;;;;;;;;;;;;;5090912;28;1246;-52
2022/10/12 05:38:13;;;;;;;;;;;;;;;;;;5091037;28;1233;-55
2022/10/12 05:40:40;;;;;;;;;;;;;;;;;;5090748;28;1032;-47
2022/10/12 05:43:07;;;;;;;;;;;;;;;;;;5090887;28;1166;-54
2022/10/12 05:45:34;;;;;;;;;;;;;;;;;;5090662;28;1019;-47
2022/10/12 05:48:01;;;;;;;;;;;;;;;;;;5090529;28;1154;-54
2022/10/12 05:50:29;;;;;;;;;;;;;;;;;;5090837;28;1913;-45
2022/10/12 05:52:56;;;;;;;;;;;;;;;;;;5090480;28;1136;-45
2022/10/12 05:55:23;;;;;;;;;;;;;;;;;;5090105;28;1076;-52
2022/10/12 05:57:50;;;;;;;;;;;;;;;;;;5090561;28;972;-41
2022/10/12 06:00:18;;;;;;;;;;;;;;;;;;5089920;28;922;-43
2022/10/12 06:02:45;;;;;;;;;;;;;;;;;;5094666;28;1674;-47
2022/10/12 06:05:12;;;;;;;;;;;;;;;;;;5094398;28;1279;-52
2022/10/12 06:07:39;;;;;;;;;;;;;;;;;;5093294;28;1374;-52
2022/10/12 06:10:07;;;;;;;;;;;;;;;;;;5094367;28;2008;-47
2022/10/12 06:12:34;;;;;;;;;;;;;;;;;;5094420;28;1045;-42
2022/10/12 06:15:01;;;;;;;;;;;;;;;;;;5094681;28;1192;-42
2022/10/12 06:17:28;;;;;;;;;;;;;;;;;;5094128;28;904;-47
2022/10/12 06:19:57;;;;;;;;;;;;;;;;;;5094340;28;1280;-47
2022/10/12 06:22:24;;;;;;;;;;;;;;;;;;5094263;28;914;-49
2022/10/12 06:24:51;;;;;;;;;;;;;;;;;;5093963;28;1174;-50
2022/10/12 06:27:19;;;;;;;;;;;;;;;;;;5094240;28;1018;-47
2022/10/12 06:29:46;;;;;;;;;;;;;;;;;;5093906;28;1168;-43
2022/10/12 06:32:13;;;;;;;;;;;;;;;;;;5093741;28;2000;-45
2022/10/12 06:34:40;;;;;;;;;;;;;;;;;;5093905;28;977;-52
2022/10/12 06:37:07;;;;;;;;;;;;;;;;;;5094335;28;1056;-42
2022/10/12 06:39:50;;;;;;;;;;;;;;;;;;5093987;28;1350;-47
2022/10/12 06:42:17;;;;;;;;;;;;;;;;;;5093958;28;1245;-47
2022/10/12 06:44:48;;;;;;;;;;;;;;;;;;5093756;28;960;-50
2022/10/12 06:47:15;;;;;;;;;;;;;;;;;;5093786;28;1189;-46
2022/10/12 06:49:42;;;;;;;;;;;;;;;;;;5093771;28;965;-51
2022/10/12 06:52:09;;;;;;;;;;;;;;;;;;5092235;28;1913;-44
2022/10/12 06:54:36;;;;;;;;;;;;;;;;;;5093474;28;1331;-45
2022/10/12 06:57:04;;;;;;;;;;;;;;;;;;5093484;28;1140;-46
2022/10/12 06:59:32;;;;;;;;;;;;;;;;;;5093878;28;873;-45
2022/10/12 07:01:59;;;;;;;;;;;;;;;;;;5093521;28;1221;-48
2022/10/12 07:04:26;;;;;;;;;;;;;;;;;;5093328;28;1400;-42
2022/10/12 07:06:55;;;;;;;;;;;;;;;;;;5093367;28;971;-51
2022/10/12 07:09:24;;;;;;;;;;;;;;;;;;5093256;28;1159;-46
2022/10/12 07:11:51;;;;;;;;;;;;;;;;;;5092703;28;1914;-46
2022/10/12 07:14:18;;;;;;;;;;;;;;;;;;5093248;28;992;-46
2022/10/12 07:16:45;;;;;;;;;;;;;;;;;;5093199;28;1122;-46
2022/10/12 07:19:16;;;;;;;;;;;;;;;;;;5093200;28;1356;-51
2022/10/12 07:21:43;;;;;;;;;;;;;;;;;;5092999;28;1319;-51
2022/10/12 07:24:11;;;;;;;;;;;;;;;;;;5099427;28;1326;-44
2022/10/12 07:26:38;;;;;;;;;;;;;;;;;;5113235;28;1039;-45
2022/10/12 07:29:05;;;;;;;;;;;;;;;;;;5113640;28;974;-47
2022/10/12 07:31:33;;;;;;;;;;;;;;;;;;5113367;28;1998;-47
2022/10/12 07:34:00;;;;;;;;;;;;;;;;;;5113195;27;1334;-52
2022/10/12 07:36:27;;;;;;;;;;;;;;;;;;5112834;28;1018;-46
2022/10/12 07:39:13;;;;;;;;;;;;;;;;;;5113100;28;1296;-51
2022/10/12 07:41:41;;;;;;;;;;;;;;;;;;5112974;28;1158;-53
2022/10/12 07:44:08;;;;;;;;;;;;;;;;;;5113142;28;1232;-48
2022/10/12 07:46:35;;;;;;;;;;;;;;;;;;5113189;28;899;-48
2022/10/12 07:49:03;;;;;;;;;;;;;;;;;;5112782;28;997;-55
2022/10/12 07:51:30;;;;;;;;;;;;;;;;;;5112940;28;1918;-53
2022/10/12 07:53:59;;;;;;;;;;;;;;;;;;5112527;28;1174;-53
2022/10/12 07:56:26;;;;;;;;;;;;;;;;;;5112614;28;1034;-50
2022/10/12 07:58:54;;;;;;;;;;;;;;;;;;5112845;28;1090;-52
2022/10/12 08:01:23;;;;;;;;;;;;;;;;;;5112445;28;1315;-52
2022/10/12 08:03:50;;;;;;;;;;;;;;;;;;5112469;28;1088;-54
2022/10/12 08:06:18;;;;;;;;;;;;;;;;;;5112549;28;1247;-54
2022/10/12 08:08:46;;;;;;;;;;;;;;;;;;5112635;28;1082;-51
2022/10/12 08:11:14;;;;;;;;;;;;;;;;;;5112514;28;1909;-50
2022/10/12 08:13:41;;;;;;;;;;;;;;;;;;5112368;28;1165;-51
2022/10/12 08:16:12;;;;;;;;;;;;;;;;;;5112596;28;1025;-51
2022/10/12 08:18:40;;;;;;;;;;;;;;;;;;5112320;28;1129;-43
2022/10/12 08:21:08;;;;;;;;;;;;;;;;;;5112457;28;1143;-51
2022/10/12 08:23:35;;;;;;;;;;;;;;;;;;5111417;28;1210;-53
2022/10/12 08:26:03;;;;;;;;;;;;;;;;;;5112365;28;988;-52
2022/10/12 08:28:30;;;;;;;;;;;;;;;;;;5112018;28;1093;-46
2022/10/12 08:30:57;;;;;;;;;;;;;;;;;;5111906;28;1914;-54
2022/10/12 08:33:27;;;;;;;;;;;;;;;;;;5111908;28;1062;-46
2022/10/12 08:35:54;;;;;;;;;;;;;;;;;;5111952;28;1214;-47
2022/10/12 08:38:21;;;;;;;;;;;;;;;;;;5112270;28;1361;-54
2022/10/12 08:41:05;;;;;;;;;;;;;;;;;;5111641;28;1024;-46
2022/10/12 08:43:51;;;;;;;;;;;;;;;;;;5112217;28;1252;-51
2022/10/12 08:46:20;;;;;;;;;;;;;;;;;;5112003;28;1284;-47
2022/10/12 08:48:50;;;;;;;;;;;;;;;;;;5111736;28;1242;-48
2022/10/12 08:51:22;;;;;;;;;;;;;;;;;;5111832;28;1906;-53
2022/10/12 08:54:02;;;;;;;;;;;;;;;;;;5111621;28;1027;-50
2022/10/12 08:56:29;;;;;;;;;;;;;;;;;;5112007;28;967;-52
2022/10/12 08:58:57;;;;;;;;;;;;;;;;;;5111692;28;1060;-45
2022/10/12 09:01:37;;;;;;;;;;;;;;;;;;5111729;28;1183;-54
2022/10/12 09:04:08;;;;;;;;;;;;;;;;;;5111394;28;1030;-51
2022/10/12 09:06:46;;;;;;;;;;;;;;;;;;5111732;28;1067;-51
2022/10/12 09:09:30;;;;;;;;;;;;;;;;;;5111519;28;992;-55
2022/10/12 09:12:07;;;;;;;;;;;;;;;;;;5111388;28;1906;-46
2022/10/12 09:14:36;;;;;;;;;;;;;;;;;;5111471;28;1357;-55
2022/10/12 09:17:07;;;;;;;;;;;;;;;;;;5111646;28;1197;-52
2022/10/12 09:19:36;;;;;;;;;;;;;;;;;;5111402;28;1117;-48
2022/10/12 09:22:05;;;;;;;;;;;;;;;;;;5111222;28;1567;-55
2022/10/12 09:24:34;;;;;;;;;;;;;;;;;;5111149;28;1220;-53
2022/10/12 09:27:10;;;;;;;;;;;;;;;;;;5111370;28;1188;-50
2022/10/12 09:29:38;;;;;;;;;;;;;;;;;;5111293;28;1341;-54
2022/10/12 09:32:25;;;;;;;;;;;;;;;;;;5111491;28;1988;-56
2022/10/12 09:34:52;;;;;;;;;;;;;;;;;;5112207;28;1073;-55
2022/10/12 09:37:21;;;;;;;;;;;;;;;;;;5115359;28;978;-51
2022/10/12 09:39:48;;;;;;;;;;;;;;;;;;5115469;28;1294;-52
2022/10/12 09:42:15;;;;;;;;;;;;;;;;;;5115508;28;1074;-48
2022/10/12 09:44:45;;;;;;;;;;;;;;;;;;5115638;28;1087;-51
2022/10/12 09:47:27;;;;;;;;;;;;;;;;;;5115654;28;1207;-53
2022/10/12 09:49:59;;;;;;;;;;;;;;;;;;5114951;28;1031;-51
2022/10/12 09:52:26;;;;;;;;;;;;;;;;;;5115146;28;1974;-52
2022/10/12 09:54:56;;;;;;;;;;;;;;;;;;5114815;28;1053;-54
2022/10/12 09:57:32;;;;;;;;;;;;;;;;;;5115205;28;988;-55
2022/10/12 10:00:01;;;;;;;;;;;;;;;;;;5115044;28;1107;-53
2022/10/12 10:02:46;;;;;;;;;;;;;;;;;;5114865;28;1883;-52
2022/10/12 10:05:22;;;;;;;;;;;;;;;;;;5115015;28;1077;-53
2022/10/12 10:07:49;;;;;;;;;;;;;;;;;;5114935;28;963;-51
2022/10/12 10:10:21;;;;;;;;;;;;;;;;;;5114836;28;1374;-44
2022/10/12 10:13:00;;;;;;;;;;;;;;;;;;5114700;28;1985;-50
2022/10/12 10:15:32;;;;;;;;;;;;;;;;;;5114555;28;968;-55
2022/10/12 10:18:00;;;;;;;;;;;;;;;;;;5114846;28;1086;-51
2022/10/12 10:20:30;;;;;;;;;;;;;;;;;;5113274;28;2459;-50
2022/10/12 10:22:58;;;;;;;;;;;;;;;;;;5114395;28;1102;-48
2022/10/12 10:25:25;;;;;;;;;;;;;;;;;;5114291;28;1177;-51
2022/10/12 10:28:10;;;;;;;;;;;;;;;;;;5114593;28;1126;-55
2022/10/12 10:30:37;;;;;;;;;;;;;;;;;;5114366;28;944;-54
2022/10/12 10:33:14;;;;;;;;;;;;;;;;;;5114287;28;1914;-55
2022/10/12 10:35:53;;;;;;;;;;;;;;;;;;5114341;28;919;-54
2022/10/12 10:38:20;;;;;;;;;;;;;;;;;;5114258;28;1140;-54
2022/10/12 10:40:51;;;;;;;;;;;;;;;;;;5114350;28;1173;-50
2022/10/12 10:43:28;;;;;;;;;;;;;;;;;;5114494;28;1173;-52
2022/10/12 10:46:02;;;;;;;;;;;;;;;;;;5114040;28;984;-53
2022/10/12 10:48:54;;;;;;;;;;;;;;;;;;5113729;28;1105;-50
2022/10/12 10:51:22;;;;;;;;;;;;;;;;;;5113772;28;1905;-53
2022/10/12 10:53:49;;;;;;;;;;;;;;;;;;5114249;28;1368;-49
2022/10/12 10:56:22;;;;;;;;;;;;;;;;;;5114160;28;1363;-54
2022/10/12 10:59:13;;;;;;;;;;;;;;;;;;5113828;28;1081;-44
2022/10/12 11:01:53;;;;;;;;;;;;;;;;;;5113805;28;1262;-48
2022/10/12 11:04:24;;;;;;;;;;;;;;;;;;5113736;28;910;-45
2022/10/12 11:06:53;;;;;;;;;;;;;;;;;;5112642;28;963;-48
2022/10/12 11:09:24;;;;;;;;;;;;;;;;;;5114008;28;934;-43
2022/10/12 11:12:14;;;;;;;;;;;;;;;;;;5113554;28;1906;-52
2022/10/12 11:14:46;;;;;;;;;;;;;;;;;;5105556;28;1715;-53
2022/10/12 11:17:20;;;;;;;;;;;;;;;;;;5113352;28;1112;-51
2022/10/12 11:19:51;;;;;;;;;;;;;;;;;;5113781;28;1072;-54
2022/10/12 11:22:21;;;;;;;;;;;;;;;;;;5113374;28;1415;-48
2022/10/12 11:25:09;;;;;;;;;;;;;;;;;;5101292;27;1256;-52
2022/10/12 11:27:40;;;;;;;;;;;;;;;;;;5093150;28;919;-45
2022/10/12 11:30:14;;;;;;;;;;;;;;;;;;5092767;28;906;-55
2022/10/12 11:32:43;;;;;;;;;;;;;;;;;;5092736;28;1988;-53
2022/10/12 11:35:15;;;;;;;;;;;;;;;;;;5092836;28;1051;-52
2022/10/12 11:37:45;;;;;;;;;;;;;;;;;;5092551;28;909;-54
2022/10/12 11:40:18;;;;;;;;;;;;;;;;;;5092613;28;995;-51
2022/10/12 11:42:59;;;;;;;;;;;;;;;;;;5092586;28;981;-50
2022/10/12 11:45:30;;;;;;;;;;;;;;;;;;5092521;28;1052;-55
2022/10/12 11:48:03;;;;;;;;;;;;;;;;;;5092621;28;1057;-50
2022/10/12 11:50:37;;;;;;;;;;;;;;;;;;5092687;28;1138;-55
2022/10/12 11:53:13;;;;;;;;;;;;;;;;;;5092229;28;1922;-51
2022/10/12 11:55:40;;;;;;;;;;;;;;;;;;5092279;28;1162;-53
2022/10/12 11:58:10;;;;;;;;;;;;;;;;;;5092453;28;1071;-50
2022/10/12 12:00:45;;;;;;;;;;;;;;;;;;5092095;28;1273;-54
2022/10/12 12:03:22;;;;;;;;;;;;;;;;;;5092326;28;913;-55
2022/10/12 12:05:49;;;;;;;;;;;;;;;;;;5092325;28;1006;-55
2022/10/12 12:08:39;;;;;;;;;;;;;;;;;;5092301;28;1132;-42
2022/10/12 12:11:20;;;;;;;;;;;;;;;;;;5092256;28;1762;-56
2022/10/12 12:13:49;;;;;;;;;;;;;;;;;;5091698;28;1906;-53
2022/10/12 12:16:16;;;;;;;;;;;;;;;;;;5092127;28;1140;-54
2022/10/12 12:19:02;;;;;;;;;;;;;;;;;;5090793;28;1184;-49
2022/10/12 12:21:29;;;;;;;;;;;;;;;;;;5092200;28;1001;-52
2022/10/12 12:23:56;;;;;;;;;;;;;;;;;;5091724;28;1252;-44
2022/10/12 12:26:26;;;;;;;;;;;;;;;;;;5092053;28;1131;-53
2022/10/12 12:29:29;;;;;;;;;;;;;;;;;;5091761;28;1114;-55
2022/10/12 12:32:00;;;;;;;;;;;;;;;;;;5069395;28;1905;-47
2022/10/12 12:34:28;;;;;;;;;;;;;;;;;;5087761;28;1173;-52
2022/10/12 12:36:56;;;;;;;;;;;;;;;;;;5091853;28;1067;-55
2022/10/12 12:39:31;;;;;;;;;;;;;;;;;;5091717;28;1081;-52
2022/10/12 12:42:00;;;;;;;;;;;;;;;;;;5091425;28;1235;-48
2022/10/12 12:44:37;;;;;;;;;;;;;;;;;;5091523;28;1187;-49
2022/10/12 12:47:04;;;;;;;;;;;;;;;;;;5091406;28;1008;-44
2022/10/12 12:49:53;;;;;;;;;;;;;;;;;;5091659;28;1224;-53
2022/10/12 12:52:25;;;;;;;;;;;;;;;;;;5091345;28;1976;-53
2022/10/12 12:55:11;;;;;;;;;;;;;;;;;;5091670;28;1352;-55
2022/10/12 12:57:50;;;;;;;;;;;;;;;;;;5091216;28;1281;-53
2022/10/12 13:00:21;;;;;;;;;;;;;;;;;;5091202;28;933;-53
2022/10/12 13:02:48;;;;;;;;;;;;;;;;;;5091255;28;1228;-52
2022/10/12 13:05:37;;;;;;;;;;;;;;;;;;5091252;28;1248;-42
2022/10/12 13:08:07;;;;;;;;;;;;;;;;;;5091090;28;943;-49
2022/10/12 13:11:01;;;;;;;;;;;;;;;;;;5090794;28;1394;-51
2022/10/12 13:13:32;;;;;;;;;;;;;;;;;;5091399;28;1906;-42
2022/10/12 13:16:09;;;;;;;;;;;;;;;;;;5091486;28;1071;-53
2022/10/12 13:18:48;;;;;;;;;;;;;;;;;;5091116;28;1361;-53
2022/10/12 13:21:21;;;;;;;;;;;;;;;;;;5089802;28;1005;-41
2022/10/12 13:23:51;;;;;;;;;;;;;;;;;;5090909;28;1103;-52
2022/10/12 13:26:24;;;;;;;;;;;;;;;;;;5091096;28;923;-51
2022/10/12 13:28:51;;;;;;;;;;;;;;;;;;5089514;28;1086;-46
2022/10/12 13:31:29;;;;;;;;;;;;;;;;;;5090852;28;990;-45
2022/10/12 13:34:08;;;;;;;;;;;;;;;;;;5091431;28;2005;-46
2022/10/12 13:36:45;;;;;;;;;;;;;;;;;;5091111;28;996;-47
2022/10/12 13:39:15;;;;;;;;;;;;;;;;;;5090648;28;1171;-49
2022/10/12 13:41:42;;;;;;;;;;;;;;;;;;5090827;28;1050;-42
2022/10/12 13:44:18;;;;;;;;;;;;;;;;;;5090859;28;978;-52
2022/10/12 13:46:55;;;;;;;;;;;;;;;;;;5090830;28;1154;-42
2022/10/12 13:49:26;;;;;;;;;;;;;;;;;;5091073;28;1464;-54
2022/10/12 13:52:01;;;;;;;;;;;;;;;;;;5089585;28;1357;-47
2022/10/12 13:54:42;;;;;;;;;;;;;;;;;;5090796;28;1967;-48
2022/10/12 13:57:31;;;;;;;;;;;;;;;;;;5090774;28;1218;-41
2022/10/12 14:00:07;;;;;;;;;;;;;;;;;;5091105;28;1367;-41
2022/10/12 14:02:35;;;;;;;;;;;;;;;;;;5090636;28;1199;-50
2022/10/12 14:05:04;;;;;;;;;;;;;;;;;;5090724;28;1365;-41
2022/10/12 14:07:32;;;;;;;;;;;;;;;;;;5090912;28;1085;-41
2022/10/12 14:10:05;;;;;;;;;;;;;;;;;;5090909;28;1150;-46
2022/10/12 14:12:35;;;;;;;;;;;;;;;;;;5090387;28;1906;-41
2022/10/12 14:15:04;;;;;;;;;;;;;;;;;;5090552;28;1106;-42
2022/10/12 14:17:31;;;;;;;;;;;;;;;;;;5090443;28;987;-46
2022/10/12 14:20:13;;;;;;;;;;;;;;;;;;5090660;28;1520;-41
2022/10/12 14:22:45;;;;;;;;;;;;;;;;;;5091413;28;1378;-43
2022/10/12 14:25:21;;;;;;;;;;;;;;;;;;5094085;28;1229;-45
2022/10/12 14:28:11;;;;;;;;;;;;;;;;;;5094305;28;954;-42
2022/10/12 14:30:48;;;;;;;;;;;;;;;;;;5092012;28;1215;-42
2022/10/12 14:33:15;;;;;;;;;;;;;;;;;;5093878;28;1918;-41
2022/10/12 14:35:46;;;;;;;;;;;;;;;;;;5092783;28;1003;-49
2022/10/12 14:38:32;;;;;;;;;;;;;;;;;;5087283;28;1168;-41
2022/10/12 14:41:18;;;;;;;;;;;;;;;;;;5096112;28;1114;-48
2022/10/12 14:44:01;;;;;;;;;;;;;;;;;;5093835;28;1055;-42
2022/10/12 14:46:30;;;;;;;;;;;;;;;;;;5109559;28;1107;-41
2022/10/12 14:48:57;;;;;;;;;;;;;;;;;;5114555;28;1069;-41
2022/10/12 14:51:24;;;;;;;;;;;;;;;;;;5114311;28;1096;-47
2022/10/12 14:53:58;;;;;;;;;;;;;;;;;;5114333;28;1973;-48
2022/10/12 14:56:27;;;;;;;;;;;;;;;;;;5114102;27;1022;-46
2022/10/12 14:58:54;;;;;;;;;;;;;;;;;;5096190;28;1243;-42
2022/10/12 15:01:21;;;;;;;;;;;;;;;;;;5093661;28;1321;-46
2022/10/12 15:03:48;;;;;;;;;;;;;;;;;;5093587;28;1074;-41
2022/10/12 15:06:16;;;;;;;;;;;;;;;;;;5093737;28;998;-47
2022/10/12 15:08:43;;;;;;;;;;;;;;;;;;5093470;28;1085;-40
2022/10/12 15:11:11;;;;;;;;;;;;;;;;;;5093527;28;1239;-42
2022/10/12 15:13:38;;;;;;;;;;;;;;;;;;5093481;28;1977;-46
2022/10/12 15:16:25;;;;;;;;;;;;;;;;;;5093635;28;1371;-50
2022/10/12 15:18:53;;;;;;;;;;;;;;;;;;5093422;28;1367;-40
2022/10/12 15:21:20;;;;;;;;;;;;;;;;;;5093296;28;1063;-43
2022/10/12 15:23:47;;;;;;;;;;;;;;;;;;5096952;28;1275;-48
2022/10/12 15:26:16;;;;;;;;;;;;;;;;;;5113618;28;1301;-48
2022/10/12 15:28:44;;;;;;;;;;;;;;;;;;5113729;28;1170;-45
2022/10/12 15:31:12;;;;;;;;;;;;;;;;;;5113298;28;1052;-43
2022/10/12 15:33:44;;;;;;;;;;;;;;;;;;5102134;28;1926;-47
2022/10/12 15:36:11;;;;;;;;;;;;;;;;;;5093196;28;1065;-42
2022/10/12 15:38:38;;;;;;;;;;;;;;;;;;5092686;28;1252;-42
2022/10/12 15:41:12;;;;;;;;;;;;;;;;;;5093143;28;1155;-46
2022/10/12 15:43:39;;;;;;;;;;;;;;;;;;5092829;28;1123;-44
2022/10/12 15:46:11;;;;;;;;;;;;;;;;;;5092666;28;997;-41
2022/10/12 15:48:39;;;;;;;;;;;;;;;;;;5092902;28;1259;-41
2022/10/12 15:51:16;;;;;;;;;;;;;;;;;;5092820;28;1139;-44
2022/10/12 15:53:43;;;;;;;;;;;;;;;;;;5092623;28;1910;-46
2022/10/12 15:56:12;;;;;;;;;;;;;;;;;;5092784;28;904;-45
2022/10/12 15:58:39;;;;;;;;;;;;;;;;;;5092531;28;1297;-41
2022/10/12 16:01:10;;;;;;;;;;;;;;;;;;5092639;28;1138;-47
2022/10/12 16:03:38;;;;;;;;;;;;;;;;;;5092762;28;990;-49
2022/10/12 16:06:05;;;;;;;;;;;;;;;;;;5092697;28;1163;-48
2022/10/12 16:08:33;;;;;;;;;;;;;;;;;;5092180;28;943;-45
2022/10/12 16:11:04;;;;;;;;;;;;;;;;;;5092272;28;1069;-45
2022/10/12 16:13:31;;;;;;;;;;;;;;;;;;5092201;28;1913;-40
2022/10/12 16:15:58;;;;;;;;;;;;;;;;;;5092081;28;1284;-42
2022/10/12 16:18:25;;;;;;;;;;;;;;;;;;5092249;28;939;-43
2022/10/12 16:20:52;;;;;;;;;;;;;;;;;;5092268;28;1070;-49
2022/10/12 16:23:23;;;;;;;;;;;;;;;;;;5092071;28;1087;-44
2022/10/12 16:25:50;;;;;;;;;;;;;;;;;;5091998;28;891;-44
2022/10/12 16:28:18;;;;;;;;;;;;;;;;;;5091987;28;1013;-48
2022/10/12 16:30:45;;;;;;;;;;;;;;;;;;5092112;28;967;-50
2022/10/12 16:33:12;;;;;;;;;;;;;;;;;;5091703;28;1918;-50
2022/10/12 16:35:39;;;;;;;;;;;;;;;;;;5092191;28;1039;-44
2022/10/12 16:38:08;;;;;;;;;;;;;;;;;;5092110;28;1110;-52
2022/10/12 16:40:38;;;;;;;;;;;;;;;;;;5091373;28;972;-51
2022/10/12 16:43:06;;;;;;;;;;;;;;;;;;5092123;28;1146;-47
2022/10/12 16:45:33;;;;;;;;;;;;;;;;;;5091073;28;1072;-49
2022/10/12 16:48:00;;;;;;;;;;;;;;;;;;5091877;28;1087;-48
2022/10/12 16:50:30;;;;;;;;;;;;;;;;;;5091523;28;895;-51
2022/10/12 16:52:57;;;;;;;;;;;;;;;;;;5091518;28;1904;-51
2022/10/12 16:55:24;;;;;;;;;;;;;;;;;;5091639;28;923;-51
2022/10/12 16:57:51;;;;;;;;;;;;;;;;;;5091491;28;997;-49
2022/10/12 17:00:18;;;;;;;;;;;;;;;;;;5091611;28;991;-53
2022/10/12 17:02:46;;;;;;;;;;;;;;;;;;5091481;28;1210;-51
2022/10/12 17:05:13;;;;;;;;;;;;;;;;;;5091485;28;1461;-48
2022/10/12 17:07:40;;;;;;;;;;;;;;;;;;5091695;28;1087;-49
2022/10/12 17:10:08;;;;;;;;;;;;;;;;;;5091626;28;1076;-47
2022/10/12 17:12:36;;;;;;;;;;;;;;;;;;5091236;28;1074;-49
2022/10/12 17:15:03;;;;;;;;;;;;;;;;;;5091290;28;1918;-53
2022/10/12 17:17:31;;;;;;;;;;;;;;;;;;5091293;28;1167;-52
2022/10/12 17:19:58;;;;;;;;;;;;;;;;;;5091393;28;1205;-49
2022/10/12 17:22:25;;;;;;;;;;;;;;;;;;5091157;28;1071;-46
2022/10/12 17:24:52;;;;;;;;;;;;;;;;;;5091465;28;1151;-51
2022/10/12 17:27:19;;;;;;;;;;;;;;;;;;5091200;28;1169;-48